Time;durP1;ratioP1;P1;durP2;ratioP2;P2;SDS_P1;SDS_P2;PMS_P1;PMS_P2;Temp;Humidity;BMP_temperature;BMP_pressure;BME280_temperature;BME280_humidity;BME280_pressure;Samples;Min_cycle;Max_cycle;Signal;HPM_P1;HPM_P2
2021/01/28 00:02:12;;;;;;;6.53;5.85;;;;;;;0.49;68.98;97193.13;9860112;30;20537;-74
2021/01/28 00:07:32;;;;;;;8.18;6.03;;;;;;;0.46;68.61;97178.44;9860445;30;20540;-74
2021/01/28 00:12:52;;;;;;;7.22;5.95;;;;;;;0.53;68.71;97174.28;9848610;30;20066;-75
2021/01/28 00:18:12;;;;;;;6.15;5.53;;;;;;;0.51;68.51;97174.09;9873455;30;20071;-74
2021/01/28 00:23:32;;;;;;;7.35;6.13;;;;;;;0.57;68.88;97175.41;9859950;30;20068;-74
2021/01/28 00:28:52;;;;;;;8.48;6.05;;;;;;;0.60;70.01;97165.34;9859611;30;20090;-75
2021/01/28 00:34:12;;;;;;;7.63;5.97;;;;;;;0.54;71.29;97160.00;9874088;30;20512;-74
2021/01/28 00:39:32;;;;;;;7.03;6.32;;;;;;;0.56;70.51;97159.47;9872009;30;20389;-74
2021/01/28 00:44:52;;;;;;;6.80;6.10;;;;;;;0.54;70.59;97145.53;9846935;30;20060;-74
2021/01/28 00:50:13;;;;;;;6.90;5.97;;;;;;;0.51;70.28;97139.13;9860566;30;20063;-75
2021/01/28 00:55:33;;;;;;;6.90;5.93;;;;;;;0.46;71.59;97128.28;9873103;30;20508;-75
2021/01/28 01:01:13;;;;;;;7.03;6.05;;;;;;;0.44;70.72;97134.31;9871546;30;20106;-74
2021/01/28 01:06:33;;;;;;;7.65;5.75;;;;;;;0.47;70.89;97135.25;9874769;30;20063;-75
2021/01/28 01:11:54;;;;;;;6.25;5.35;;;;;;;0.50;70.11;97145.16;9865963;30;20223;-74
2021/01/28 01:17:14;;;;;;;7.90;6.53;;;;;;;0.52;70.29;97145.34;9880118;30;20419;-75
2021/01/28 01:22:37;;;;;;;7.13;5.78;;;;;;;0.53;71.91;97133.09;9865822;30;20075;-75
2021/01/28 01:27:57;;;;;;;7.40;5.82;;;;;;;0.57;71.53;97127.97;9865909;30;20067;-75
2021/01/28 01:33:40;;;;;;;6.43;5.75;;;;;;;0.49;72.09;97113.50;9877797;30;20067;-74
2021/01/28 01:39:03;;;;;;;6.10;5.50;;;;;;;0.44;72.01;97108.88;9878339;30;20144;-75
2021/01/28 01:44:34;;;;;;;5.97;5.38;;;;;;;0.38;73.11;97089.78;9864483;30;20063;-75
2021/01/28 01:50:58;;;;;;;5.78;5.28;;;;;;;0.38;72.81;97089.06;9878411;30;20071;-75
2021/01/28 01:56:56;;;;;;;6.07;5.45;;;;;;;0.40;72.17;97076.28;9850407;30;20458;-75
2021/01/28 02:02:21;;;;;;;6.95;5.43;;;;;;;0.48;71.94;97062.56;9786775;30;20064;-77
2021/01/28 02:08:01;;;;;;;6.85;5.82;;;;;;;0.45;72.60;97056.16;9798931;30;20064;-77
2021/01/28 02:13:40;;;;;;;5.95;5.38;;;;;;;0.40;72.11;97045.34;9799303;30;20064;-77
2021/01/28 02:19:54;;;;;;;6.60;5.88;;;;;;;0.46;72.92;97045.91;9796342;30;20100;-77
2021/01/28 02:25:36;;;;;;;6.03;5.43;;;;;;;0.48;72.33;97041.34;9798707;30;20064;-77
2021/01/28 02:30:57;;;;;;;5.93;5.05;;;;;;;0.61;72.32;97039.75;9813951;30;20076;-77
2021/01/28 02:36:18;;;;;;;5.47;4.97;;;;;;;0.67;71.88;97029.31;9838435;30;20072;-77
2021/01/28 02:41:41;;;;;;;6.35;5.75;;;;;;;0.69;72.13;97022.00;9863787;30;20084;-77
2021/01/28 02:47:13;;;;;;;6.00;5.40;;;;;;;0.68;72.40;97020.53;9864655;30;20067;-77
2021/01/28 02:52:57;;;;;;;6.95;6.25;;;;;;;0.68;71.74;97026.03;9874854;30;20075;-77
2021/01/28 02:58:17;;;;;;;6.68;5.22;;;;;;;0.69;72.40;97011.03;9863344;30;20064;-77
2021/01/28 03:04:00;;;;;;;5.57;5.07;;;;;;;0.75;72.22;96994.34;9865491;30;20064;-77
2021/01/28 03:09:20;;;;;;;5.68;5.15;;;;;;;0.74;72.63;97010.09;9849777;30;20083;-77
2021/01/28 03:15:08;;;;;;;6.80;5.10;;;;;;;0.69;72.70;97019.25;9864772;30;20121;-77
2021/01/28 03:20:31;;;;;;;;;;;;;;;0.65;73.42;97013.38;9863016;30;20190;-75
2021/01/28 03:25:51;;;;;;;5.20;4.70;;;;;;;0.60;73.11;97028.03;9848630;30;19955;-74
2021/01/28 03:31:12;;;;;;;5.00;4.50;;;;;;;0.61;73.51;97018.50;9861727;30;20071;-74
2021/01/28 03:36:32;;;;;;;5.00;4.50;;;;;;;0.58;74.42;97000.38;9861389;30;20064;-75
2021/01/28 03:41:55;;;;;;;5.10;4.35;;;;;;;0.60;73.96;96997.06;9860518;30;20059;-75
2021/01/28 03:47:17;;;;;;;4.03;3.72;;;;;;;0.63;73.99;96982.97;9861402;30;20423;-74
2021/01/28 03:52:59;;;;;;;4.88;4.43;;;;;;;0.68;73.82;96973.84;9860793;30;20070;-74
2021/01/28 03:58:38;;;;;;;3.67;3.38;;;;;;;0.71;74.32;96975.50;9862823;30;20198;-75
2021/01/28 04:04:25;;;;;;;4.50;4.10;;;;;;;0.69;74.24;96969.81;9861077;30;20556;-75
2021/01/28 04:10:28;;;;;;;4.28;3.88;;;;;;;0.71;74.10;96978.25;9843730;30;20066;-75
2021/01/28 04:15:50;;;;;;;4.30;3.90;;;;;;;0.75;74.05;96973.09;9860367;30;20100;-74
2021/01/28 04:21:10;;;;;;;3.95;3.55;;;;;;;0.86;74.21;96964.50;9859721;30;20064;-77
2021/01/28 04:26:30;;;;;;;4.57;3.60;;;;;;;0.90;74.32;96955.91;9859639;30;20075;-77
2021/01/28 04:31:52;;;;;;;4.25;3.90;;;;;;;0.94;74.47;96952.78;9859578;30;20137;-77
2021/01/28 04:37:32;;;;;;;4.15;3.75;;;;;;;0.91;73.81;96943.63;9873362;30;20059;-77
2021/01/28 04:43:29;;;;;;;5.35;4.35;;;;;;;0.86;74.46;96928.78;9864088;30;20064;-77
2021/01/28 04:49:10;;;;;;;4.35;3.97;;;;;;;0.86;74.51;96915.03;9870836;30;20068;-77
2021/01/28 04:54:53;;;;;;;4.30;3.90;;;;;;;0.83;74.77;96893.44;9914525;30;20411;-77
2021/01/28 05:00:23;;;;;;;5.32;3.92;;;;;;;0.81;75.37;96891.25;9905338;30;20099;-78
2021/01/28 05:06:11;;;;;;;4.65;4.25;;;;;;;0.78;75.23;96878.63;9906048;30;20106;-77
2021/01/28 05:11:54;;;;;;;4.15;3.75;;;;;;;0.85;75.28;96866.88;9915668;30;20063;-77
2021/01/28 05:17:34;;;;;;;4.97;4.32;;;;;;;0.91;75.33;96876.97;9903807;30;20135;-77
2021/01/28 05:23:34;;;;;;;4.55;4.15;;;;;;;0.93;75.04;96871.63;9905394;30;20546;-77
2021/01/28 05:28:54;;;;;;;4.32;3.92;;;;;;;0.90;75.42;96875.50;9903182;30;20123;-77
2021/01/28 05:34:20;;;;;;;4.90;4.40;;;;;;;0.95;74.99;96878.03;9902027;30;20066;-77
2021/01/28 05:40:26;;;;;;;4.53;4.13;;;;;;;0.96;75.44;96878.78;9903902;30;20063;-78
2021/01/28 05:46:29;;;;;;;5.10;4.60;;;;;;;1.01;75.43;96877.88;9901568;30;20062;-77
2021/01/28 05:51:48;;;;;;;4.30;3.90;;;;;;;1.06;75.54;96880.44;9913967;29;20408;-78
2021/01/28 05:57:47;;;;;;;3.80;3.45;;;;;;;1.12;75.21;96886.47;9901123;30;20592;-78
2021/01/28 06:04:00;;;;;;;3.83;3.50;;;;;;;1.14;75.19;96875.63;9875367;30;20056;-77
2021/01/28 06:09:47;;;;;;;3.85;3.55;;;;;;;1.15;76.01;96885.34;9914939;30;20063;-77
2021/01/28 06:15:37;;;;;;;3.80;3.50;;;;;;;1.16;75.19;96861.38;9900051;30;20468;-77
2021/01/28 06:21:54;;;;;;;3.85;3.55;;;;;;;1.19;76.38;96854.03;9900869;30;20112;-77
2021/01/28 06:28:33;;;;;;;4.20;3.80;;;;;;;1.26;75.65;96854.00;9914297;30;20067;-77
2021/01/28 06:34:21;;;;;;;4.10;3.70;;;;;;;1.26;76.08;96856.75;9901873;30;20167;-78
2021/01/28 06:40:12;;;;;;;4.10;3.70;;;;;;;1.34;76.15;96837.47;9873662;30;20068;-77
2021/01/28 06:46:02;;;;;;;4.43;4.03;;;;;;;1.36;76.09;96832.91;9892680;30;20502;-77
2021/01/28 06:51:47;;;;;;;4.40;3.80;;;;;;;1.39;75.88;96831.06;9879792;30;20765;-78
2021/01/28 06:57:21;;;;;;;3.97;3.67;;;;;;;1.43;76.00;96828.66;9861136;30;20333;-78
2021/01/28 07:03:27;;;;;;;4.30;3.90;;;;;;;1.43;75.70;96829.38;9869885;30;20067;-78
2021/01/28 07:09:15;;;;;;;4.45;4.05;;;;;;;1.48;76.17;96818.75;9870226;30;20487;-77
2021/01/28 07:14:50;;;;;;;4.38;3.97;;;;;;;1.52;76.31;96819.09;9857770;30;20068;-77
2021/01/28 07:20:55;;;;;;;4.47;4.07;;;;;;;1.54;76.59;96824.75;9871698;30;20063;-77
2021/01/28 07:26:17;;;;;;;;;;;;;;;1.53;76.62;96791.03;9872043;30;20064;-76
2021/01/28 07:31:47;;;;;;;3.75;3.42;;;;;;;1.57;76.53;96793.41;9861536;30;19975;-76
2021/01/28 07:37:22;;;;;;;4.32;3.92;;;;;;;1.58;76.58;96781.84;9863128;30;20498;-76
2021/01/28 07:43:02;;;;;;;4.68;4.28;;;;;;;1.66;76.18;96785.28;9873463;30;20529;-77
2021/01/28 07:48:46;;;;;;;4.70;4.30;;;;;;;1.81;75.33;96772.72;9864695;30;20075;-76
2021/01/28 07:54:37;;;;;;;4.47;4.07;;;;;;;1.88;76.42;96778.19;9858118;30;20151;-76
2021/01/28 08:00:09;;;;;;;4.90;4.40;;;;;;;1.88;75.84;96783.69;9837577;30;20067;-76
2021/01/28 08:05:35;;;;;;;4.93;4.35;;;;;;;1.93;75.68;96771.75;9835891;30;20143;-76
2021/01/28 08:10:55;;;;;;;5.85;4.57;;;;;;;2.02;76.04;96781.41;9823632;30;20106;-75
2021/01/28 08:16:17;;;;;;;5.05;4.53;;;;;;;2.04;75.50;96775.34;9824955;30;20072;-76
2021/01/28 08:22:14;;;;;;;5.07;4.57;;;;;;;2.11;75.66;96747.03;9834382;30;20064;-80
2021/01/28 08:27:41;;;;;;;5.50;4.75;;;;;;;2.25;75.14;96742.72;9872450;30;20078;-81
2021/01/28 08:33:27;;;;;;;6.00;5.35;;;;;;;2.34;75.23;96731.06;9867754;30;20124;-81
2021/01/28 08:39:21;;;;;;;6.35;5.75;;;;;;;2.52;74.65;96727.06;9785788;30;20111;-81
2021/01/28 08:45:43;;;;;;;6.05;5.45;;;;;;;2.66;74.48;96718.47;9864915;30;20055;-82
2021/01/28 08:52:09;;;;;;;5.55;5.05;;;;;;;2.87;73.63;96721.56;9876403;29;20135;-82
2021/01/28 08:58:37;;;;;;;6.07;5.47;;;;;;;3.01;73.04;96706.16;9911612;30;20089;-81
2021/01/28 09:04:38;;;;;;;5.88;5.28;;;;;;;3.09;73.98;96698.53;9940936;30;20060;-81
2021/01/28 09:10:08;;;;;;;5.68;4.75;;;;;;;3.11;73.17;96703.47;9943964;29;20043;-82
2021/01/28 09:16:34;;;;;;;;;;;;;;;;;;;;;
2021/01/28 09:22:42;;;;;;;6.47;5.70;;;;;;;2.88;73.83;96707.19;9898591;30;20075;-81
2021/01/28 09:35:14;;;;;;;;;;;;;;;;;;;;;
2021/01/28 09:42:42;;;;;;;;;;;;;;;;;;;;;
2021/01/28 09:54:35;;;;;;;6.45;5.30;;;;;;;3.20;73.45;96658.69;10311589;24;20100;-81
2021/01/28 10:00:31;;;;;;;6.60;5.30;;;;;;;3.24;73.37;96652.75;9907353;29;20101;-81
2021/01/28 10:07:20;;;;;;;5.75;5.05;;;;;;;3.32;73.00;96632.03;9908493;29;20055;-82
2021/01/28 10:19:51;;;;;;;6.57;5.70;;;;;;;3.22;72.83;96616.75;10539445;24;20085;-79
2021/01/28 10:25:12;;;;;;;8.02;6.20;;;;;;;3.33;72.98;96594.88;9935992;29;20145;-76
2021/01/28 10:30:32;;;;;;;7.53;5.88;;;;;;;3.41;72.67;96601.03;9949270;29;20151;-76
2021/01/28 10:35:53;;;;;;;7.97;5.90;;;;;;;3.35;72.59;96602.56;9936195;29;20410;-77
2021/01/28 10:41:12;;;;;;;13.98;5.70;;;;;;;3.36;72.54;96598.50;9935126;29;20062;-77
2021/01/28 10:46:32;;;;;;;6.40;4.72;;;;;;;3.32;72.64;96592.69;9949585;29;20062;-77
2021/01/28 10:51:52;;;;;;;6.63;5.25;;;;;;;3.32;72.58;96589.94;9949178;29;20075;-75
2021/01/28 10:57:12;;;;;;;7.30;5.03;;;;;;;3.25;72.60;96563.19;9935442;29;20066;-75
2021/01/28 11:02:32;;;;;;;7.43;5.57;;;;;;;3.25;72.41;96549.41;9935838;29;20063;-77
2021/01/28 11:07:51;;;;;;;9.95;6.32;;;;;;;3.23;72.86;96546.50;9954686;29;20078;-77
2021/01/28 11:19:30;;;;;;;7.32;5.38;;;;;;;3.36;72.74;96524.03;10049956;24;20099;-79
2021/01/28 11:24:51;;;;;;;8.25;6.25;;;;;;;3.41;72.71;96517.53;10021155;24;20573;-80
2021/01/28 11:30:19;;;;;;;7.97;6.00;;;;;;;3.36;72.25;96488.19;9906007;29;20075;-81
2021/01/28 11:35:39;;;;;;;9.23;6.00;;;;;;;3.47;72.53;96473.09;9880820;30;20531;-81
2021/01/28 11:41:03;;;;;;;8.82;6.05;;;;;;;3.50;72.75;96467.16;9885247;30;20074;-78
2021/01/28 11:46:23;;;;;;;7.65;5.97;;;;;;;3.82;72.09;96454.28;9884831;30;20067;-76
2021/01/28 11:51:43;;;;;;;9.00;6.00;;;;;;;4.01;72.22;96452.25;9884377;30;20064;-76
2021/01/28 11:57:04;;;;;;;10.63;6.05;;;;;;;4.10;71.96;96439.00;9872663;30;20064;-77
2021/01/28 12:02:24;;;;;;;7.68;5.90;;;;;;;4.01;71.08;96423.91;9956281;24;20069;-79
2021/01/28 12:07:44;;;;;;;8.38;6.47;;;;;;;4.16;70.91;96431.91;9923114;29;20119;-78
2021/01/28 12:43:07;;;;;;;6.82;5.93;;;;;;;3.83;70.91;96345.31;11652659;24;20062;-79
2021/01/28 12:48:32;;;;;;;8.02;5.45;;;;;;;3.84;71.03;96328.16;9918572;29;20070;-79
2021/01/28 12:53:52;;;;;;;6.55;4.90;;;;;;;3.88;71.06;96327.75;9956681;29;20062;-79
2021/01/28 12:59:12;;;;;;;7.93;5.15;;;;;;;3.72;70.76;96325.28;9956354;29;20461;-79
2021/01/28 13:04:33;;;;;;;7.82;5.38;;;;;;;3.63;70.77;96311.50;9960304;29;20067;-79
2021/01/28 13:09:55;;;;;;;7.65;5.43;;;;;;;3.60;71.04;96310.63;9947522;29;20062;-80
2021/01/28 13:15:25;;;;;;;7.63;5.22;;;;;;;3.61;70.91;96306.56;9947528;29;20061;-79
2021/01/28 13:27:14;;;;;;;7.38;4.93;;;;;;;3.71;70.92;96290.72;11152855;24;20065;-78
2021/01/28 13:32:37;;;;;;;8.88;4.97;;;;;;;3.72;71.31;96285.91;9939503;29;20073;-79
2021/01/28 13:38:08;;;;;;;7.00;4.75;;;;;;;3.93;71.64;96277.00;9951095;29;20139;-78
2021/01/28 13:43:54;;;;;;;7.13;5.07;;;;;;;3.99;71.45;96274.66;9957365;29;20063;-80
2021/01/28 13:49:15;;;;;;;8.33;5.57;;;;;;;3.91;71.54;96263.78;9966845;29;20066;-78
2021/01/28 13:55:26;;;;;;;;;;;;;;;;;;;;;
2021/01/28 14:01:00;;;;;;;8.70;5.18;;;;;;;3.79;72.01;96242.91;9972710;29;20063;-80
2021/01/28 14:07:03;;;;;;;10.15;5.70;;;;;;;3.71;72.14;96229.28;9964188;29;20070;-81
2021/01/28 14:18:55;;;;;;;9.82;5.40;;;;;;;3.61;73.00;96215.50;10759787;24;20098;-82
2021/01/28 14:50:44;;;;;;;10.43;6.53;;;;;;;3.25;74.45;96163.31;10091522;24;20042;-80
2021/01/28 15:11:00;;;;;;;10.60;6.75;;;;;;;3.00;75.13;96147.84;10562093;24;20061;-80
2021/01/28 15:30:27;;;;;;;11.30;6.25;;;;;;;2.52;75.03;96112.78;10895236;24;19956;-81
2021/01/28 15:48:22;;;;;;;8.15;5.65;;;;;;;2.44;75.93;96103.91;9907656;29;20103;-79
2021/01/28 15:53:43;;;;;;;9.02;5.95;;;;;;;2.39;76.61;96095.94;9926921;30;20059;-78
2021/01/28 15:59:03;;;;;;;10.05;6.20;;;;;;;2.35;76.79;96084.63;9910156;30;20073;-78
2021/01/28 16:05:02;;;;;;;9.57;6.65;;;;;;;2.29;76.23;96087.66;9938898;29;20059;-80
2021/01/28 16:17:04;;;;;;;8.25;5.55;;;;;;;2.25;76.19;96081.88;10267049;23;20069;-75
2021/01/28 16:22:27;;;;;;;10.32;5.95;;;;;;;2.25;76.76;96074.34;9969118;29;20141;-75
2021/01/28 16:27:47;;;;;;;9.45;6.63;;;;;;;2.21;76.51;96076.06;9971772;29;20070;-78
2021/01/28 16:33:07;;;;;;;9.35;6.40;;;;;;;2.20;76.43;96072.59;9971700;29;20070;-77
2021/01/28 17:08:06;;;;;;;9.70;6.88;;;;;;;2.35;77.07;96057.09;11081744;24;20057;-78
2021/01/28 17:13:26;;;;;;;8.82;6.20;;;;;;;2.32;76.50;96063.75;10043857;24;20066;-80
2021/01/28 17:18:49;;;;;;;11.27;6.20;;;;;;;2.32;76.73;96059.00;9969629;29;20073;-81
2021/01/28 17:24:09;;;;;;;8.68;6.60;;;;;;;2.39;76.35;96073.91;9949839;29;20474;-79
2021/01/28 17:29:33;;;;;;;8.60;6.60;;;;;;;2.46;76.27;96073.75;10097103;24;20077;-78
2021/01/28 17:34:53;;;;;;;9.95;6.13;;;;;;;2.54;76.62;96076.38;9978292;29;20058;-79
2021/01/28 17:40:14;;;;;;;8.48;6.00;;;;;;;2.60;75.77;96071.28;9977424;29;20066;-77
2021/01/28 17:45:38;;;;;;;7.18;4.88;;;;;;;2.63;77.26;96081.16;9976723;29;20062;-77
2021/01/28 17:51:00;;;;;;;9.10;6.05;;;;;;;2.71;76.79;96086.50;9988111;29;20149;-77
2021/01/28 17:56:20;;;;;;;8.23;6.07;;;;;;;2.77;76.78;96092.44;9987542;29;20062;-77
2021/01/28 18:08:10;;;;;;;9.18;5.68;;;;;;;2.84;77.06;96088.81;10051487;23;20593;-77
2021/01/28 18:13:31;;;;;;;7.95;5.55;;;;;;;2.86;76.74;96102.72;10042508;29;20064;-77
2021/01/28 18:19:07;;;;;;;7.50;5.18;;;;;;;2.91;76.45;96107.22;10052427;29;20137;-78
2021/01/28 18:24:34;;;;;;;8.63;6.20;;;;;;;2.91;76.50;96112.75;10025515;29;20057;-80
2021/01/28 18:29:59;;;;;;;9.18;7.00;;;;;;;2.95;76.83;96113.00;10023811;29;20121;-78
2021/01/28 18:35:19;;;;;;;8.10;5.85;;;;;;;2.95;76.40;96107.50;10023502;29;20097;-77
2021/01/28 18:40:59;;;;;;;8.07;5.97;;;;;;;2.93;76.62;96110.13;10035393;29;20058;-74
2021/01/28 18:46:19;;;;;;;9.05;6.80;;;;;;;2.93;76.14;96104.59;10023339;29;20527;-74
2021/01/28 18:51:40;;;;;;;8.18;6.15;;;;;;;2.96;76.38;96108.22;10009456;29;20428;-74
2021/01/28 18:57:00;;;;;;;8.88;7.20;;;;;;;2.96;76.57;96110.97;10009469;29;20058;-74
2021/01/28 19:02:20;;;;;;;9.00;7.32;;;;;;;2.95;76.66;96099.22;10008247;29;20084;-75
2021/01/28 19:07:40;;;;;;;12.02;8.48;;;;;;;2.94;77.20;96103.28;10021953;29;20525;-76
2021/01/28 19:13:02;;;;;;;12.77;9.88;;;;;;;2.91;76.96;96109.25;10023744;29;20058;-78
2021/01/28 19:18:23;;;;;;;13.02;9.55;;;;;;;2.93;76.75;96104.59;10029332;29;20152;-77
2021/01/28 19:23:44;;;;;;;11.30;8.70;;;;;;;2.94;76.58;96119.09;10367725;24;20073;-80
2021/01/28 19:29:04;;;;;;;11.52;8.90;;;;;;;2.93;77.36;96129.41;10002608;29;20462;-80
2021/01/28 19:48:05;;;;;;;13.13;10.23;;;;;;;2.87;76.89;96154.50;10638188;23;20043;31
2021/01/28 20:00:07;;;;;;;14.07;11.70;;;;;;;2.83;76.62;96161.78;10319604;23;20141;-78
2021/01/28 20:11:43;;;;;;;16.63;12.43;;;;;;;2.74;76.74;96168.72;11218071;23;19932;-80
2021/01/28 20:17:02;;;;;;;15.95;12.63;;;;;;;2.70;76.59;96170.44;9969089;29;20311;-79
2021/01/28 20:22:22;;;;;;;14.40;11.88;;;;;;;2.68;77.18;96176.56;9956542;29;20066;-78
2021/01/28 20:27:43;;;;;;;16.60;12.73;;;;;;;2.62;77.04;96194.69;9984578;29;20120;-79
2021/01/28 20:33:04;;;;;;;16.10;12.02;;;;;;;2.59;76.87;96186.25;9984921;29;20066;-80
2021/01/28 20:38:28;;;;;;;16.92;12.95;;;;;;;2.55;76.81;96191.47;9976379;29;20541;-78
2021/01/28 20:43:48;;;;;;;15.77;12.10;;;;;;;2.52;76.72;96198.16;9988614;29;20062;-80
2021/01/28 20:49:08;;;;;;;15.18;11.57;;;;;;;2.48;76.89;96211.63;9988239;29;20101;-80
2021/01/28 20:54:28;;;;;;;14.65;11.50;;;;;;;2.48;77.04;96219.88;9974080;29;20541;-77
2021/01/28 20:59:49;;;;;;;14.38;10.60;;;;;;;2.47;76.85;96214.94;9979456;29;20070;-80
2021/01/28 21:05:09;;;;;;;15.75;11.60;;;;;;;2.49;77.23;96235.09;9992321;29;20070;-80
2021/01/28 21:10:29;;;;;;;14.07;10.90;;;;;;;2.47;77.09;96229.44;9991114;29;20069;-80
2021/01/28 21:15:50;;;;;;;12.98;10.52;;;;;;;2.46;77.11;96239.00;9990113;29;20068;-80
2021/01/28 21:21:10;;;;;;;12.75;10.27;;;;;;;2.42;76.96;96251.78;9976763;29;20498;-79
2021/01/28 21:26:30;;;;;;;16.15;11.65;;;;;;;2.42;77.24;96247.00;9992288;29;20086;-79
2021/01/28 21:31:50;;;;;;;16.10;12.23;;;;;;;2.39;76.95;96261.16;9980092;29;20063;-79
2021/01/28 21:37:10;;;;;;;17.48;12.18;;;;;;;2.33;77.14;96282.75;9993984;29;20506;-79
2021/01/28 21:42:30;;;;;;;19.05;13.82;;;;;;;2.34;76.97;96289.72;9994953;29;20532;-80
2021/01/28 21:47:55;;;;;;;19.02;13.75;;;;;;;2.32;77.22;96289.53;9981989;29;20475;-80
2021/01/28 21:53:16;;;;;;;20.08;14.63;;;;;;;2.33;76.92;96296.53;9983352;29;20062;-80
2021/01/28 21:58:36;;;;;;;22.58;15.60;;;;;;;2.34;77.24;96290.44;9982256;29;20069;-80
2021/01/28 22:03:56;;;;;;;22.83;15.93;;;;;;;2.35;77.10;96313.94;9982652;29;20063;-80
2021/01/28 22:09:16;;;;;;;19.63;14.45;;;;;;;2.33;77.59;96324.78;9995484;29;20145;-80
2021/01/28 22:14:35;;;;;;;21.23;15.25;;;;;;;2.25;77.38;96318.66;9981804;29;20068;-80
2021/01/28 22:19:55;;;;;;;19.92;14.45;;;;;;;2.24;77.47;96317.22;9995324;29;20097;-80
2021/01/28 22:25:27;;;;;;;22.05;15.90;;;;;;;2.18;77.41;96311.25;9981617;29;20140;-80
2021/01/28 22:30:47;;;;;;;21.15;14.60;;;;;;;2.18;77.10;96291.97;9994885;29;20066;-79
2021/01/28 22:36:07;;;;;;;20.45;14.38;;;;;;;2.19;77.39;96316.16;9979632;29;20067;-79
2021/01/28 22:41:27;;;;;;;20.05;14.65;;;;;;;2.20;77.86;96323.13;9995230;29;20090;-80
2021/01/28 22:46:47;;;;;;;19.52;14.52;;;;;;;2.22;77.32;96319.78;9994426;29;20065;-80
2021/01/28 22:52:07;;;;;;;20.70;13.93;;;;;;;2.25;77.28;96326.94;9995552;29;20066;-79
2021/01/28 22:57:27;;;;;;;19.35;13.30;;;;;;;2.26;77.20;96342.16;9980198;29;20070;-80
2021/01/28 23:02:47;;;;;;;19.15;13.20;;;;;;;2.28;77.09;96343.03;9993208;29;20070;-78
2021/01/28 23:08:07;;;;;;;18.00;12.30;;;;;;;2.23;77.81;96370.84;9993400;29;20516;-77
2021/01/28 23:13:29;;;;;;;18.65;12.55;;;;;;;2.19;77.03;96371.22;9993168;29;20114;-77
2021/01/28 23:18:49;;;;;;;16.70;10.70;;;;;;;2.16;77.14;96360.66;9980173;29;20074;-77
2021/01/28 23:24:12;;;;;;;14.52;9.70;;;;;;;2.16;77.61;96374.41;9966942;29;20058;-78
2021/01/28 23:29:31;;;;;;;11.98;9.00;;;;;;;2.16;77.54;96383.41;9992652;29;20130;-78
2021/01/28 23:34:51;;;;;;;10.57;7.65;;;;;;;2.18;77.98;96386.28;9981568;29;20129;-78
2021/01/28 23:40:14;;;;;;;10.98;7.45;;;;;;;2.20;77.60;96377.47;9965443;29;20062;-78
2021/01/28 23:45:34;;;;;;;9.27;7.28;;;;;;;2.26;77.99;96391.72;9978849;29;20399;-77
2021/01/28 23:50:54;;;;;;;9.90;7.38;;;;;;;2.30;77.42;96392.00;9979207;29;20072;-78
2021/01/28 23:56:14;;;;;;;9.73;7.30;;;;;;;2.32;77.56;96389.44;9993995;29;20066;-78
